Data for 06/30/2016

Time Sea-Level Adjusted Pressure Absolute Pressure Temperature Relative Humidity Dew Point   
(mb) (inHg) (mb) (inHg) (C) (F) (%) (C) (F)
00:05 1022 30.18 852 25.16 15.3 59.6 76 11.2 52.2
00:10 1023 30.21 852 25.16 15.6 60.1 71 10.4 50.6
00:15 1022 30.18 852 25.16 15.9 60.5 71 10.7 51.2
00:20 1023 30.21 852 25.16 16 60.7 69 10.3 50.6
00:25 1022 30.18 852 25.16 16.1 60.9 68 10.3 50.5
00:30 1023 30.21 852 25.16 16.2 61.1 66 9.9 49.7
00:35 1023 30.21 852 25.16 16.4 61.4 67 10.4 50.7
00:40 1023 30.21 852 25.16 16.2 61.1 70 10.7 51.3
00:45 1023 30.21 852 25.16 15.9 60.6 71 10.7 51.2
00:50 1022 30.18 852 25.16 15.9 60.7 70 10.5 50.9
00:55 1022 30.18 852 25.16 15.9 60.5 72 10.8 51.5
01:00 1022 30.18 852 25.16 15.7 60.3 71 10.6 51.1
01:05 1022 30.18 852 25.16 15.6 60.1 73 10.9 51.7
01:10 1022 30.18 852 25.16 15.4 59.7 74 10.9 51.6
01:15 1022 30.18 852 25.16 15.3 59.5 74 10.8 51.4
01:20 1022 30.18 852 25.16 15.3 59.5 73 10.6 51
01:25 1022 30.18 852 25.16 15.2 59.4 75 10.8 51.4
01:30 1022 30.18 852 25.16 15.2 59.4 74 10.6 51
01:35 1023 30.21 852 25.16 15.3 59.5 72 10.3 50.6
01:40 1023 30.21 852 25.16 15.4 59.7 70 10 49.9
01:45 1023 30.21 852 25.16 15.7 60.2 66 9.4 48.9
01:50 1022 30.18 852 25.16 15.8 60.4 65 9.4 48.9
01:55 1022 30.18 852 25.16 15.9 60.5 65 9.4 49
02:00 1022 30.18 852 25.16 15.8 60.4 65 9.4 48.9
02:05 1022 30.18 852 25.16 15.7 60.3 64 9.1 48.3
02:10 1022 30.18 851 25.13 15.8 60.5 64 9.1 48.3
02:15 1022 30.18 851 25.13 15.8 60.4 63 8.9 48
02:20 1022 30.18 851 25.13 15.8 60.5 63 8.8 47.9
02:25 1022 30.18 851 25.13 15.8 60.5 63 8.8 47.8
02:30 1022 30.18 851 25.13 15.8 60.5 62 8.6 47.5
02:35 1022 30.18 851 25.13 15.8 60.4 64 9 48.2
02:40 1022 30.18 851 25.13 15.7 60.2 64 8.9 48
02:45 1022 30.18 851 25.13 15.7 60.2 63 8.6 47.5
02:50 1022 30.18 851 25.13 15.7 60.3 63 8.6 47.6
02:55 1022 30.18 851 25.13 15.7 60.2 62 8.5 47.2
03:00 1022 30.18 851 25.13 15.7 60.2 63 8.7 47.6
03:05 1022 30.18 851 25.13 15.6 60.1 63 8.6 47.4
03:10 1022 30.18 852 25.16 15.6 60.1 62 8.6 47.4
03:15 1022 30.18 852 25.16 15.6 60.2 62 8.6 47.4
03:20 1022 30.18 852 25.16 15.5 59.9 63 8.5 47.4
03:25 1022 30.18 852 25.16 15.5 59.9 63 8.5 47.3
03:30 1023 30.21 852 25.16 15.5 59.8 62 8.4 47.1
03:35 1023 30.21 852 25.16 15.4 59.7 64 8.6 47.5
03:40 1023 30.21 852 25.16 15.2 59.3 64 8.6 47.5
03:45 1023 30.21 852 25.16 15.1 59.3 64 8.5 47.3
03:50 1023 30.21 852 25.16 15.1 59.2 65 8.7 47.6
03:55 1023 30.21 852 25.16 15 59.1 66 8.8 47.8
04:00 1023 30.21 852 25.16 15 59.1 65 8.7 47.6
04:05 1023 30.21 852 25.16 15 59.1 66 8.8 47.8
04:10 1023 30.21 853 25.19 15.1 59.1 66 8.8 47.8
04:15 1024 30.24 853 25.19 15.2 59.4 67 9.2 48.5
04:20 1024 30.24 853 25.19 15.3 59.6 68 9.6 49.3
04:25 1024 30.24 853 25.19 15.3 59.5 70 10 50
04:30 1024 30.24 853 25.19 15.1 59.1 72 10.1 50.2
04:35 1024 30.24 854 25.22 14.9 58.7 73 10.2 50.3
04:40 1024 30.24 854 25.22 14.7 58.4 74 10.2 50.4
04:45 1025 30.27 854 25.22 14.6 58.2 75 10.2 50.3
04:50 1025 30.27 854 25.22 14.5 58.1 75 10.1 50.2
04:55 1025 30.27 854 25.22 14.4 58 75 10.1 50.2
05:00 1025 30.27 854 25.22 14.4 57.8 75 10.1 50.1
05:05 1025 30.27 854 25.22 14.2 57.6 74 9.7 49.4
05:10 1025 30.27 854 25.22 14.1 57.3 74 9.6 49.3
05:15 1024 30.24 854 25.22 13.9 56.9 75 9.4 49
05:20 1024 30.24 854 25.22 13.9 56.9 74 9.3 48.8
05:25 1024 30.24 854 25.22 13.9 57 74 9.3 48.7
05:30 1024 30.24 854 25.22 14 57.2 73 9.3 48.7
05:35 1024 30.24 854 25.22 14.3 57.7 72 9.4 48.9
05:40 1024 30.24 854 25.22 14.1 57.4 73 9.4 49
05:45 1024 30.24 854 25.22 14.2 57.6 72 9.3 48.7
05:50 1024 30.24 854 25.22 14.5 58.1 72 9.5 49.1
05:55 1025 30.27 854 25.22 14.5 58.2 72 9.6 49.2
06:00 1025 30.27 854 25.22 14.4 58 72 9.6 49.2
06:05 1025 30.27 854 25.22 14.4 58 72 9.5 49.2
06:10 1025 30.27 854 25.22 14.5 58.1 72 9.6 49.2
06:15 1025 30.27 854 25.22 14.7 58.4 71 9.5 49.1
06:20 1025 30.27 854 25.22 15 58.9 71 9.8 49.6
06:25 1024 30.24 854 25.22 14.9 58.7 72 9.9 49.9
06:30 1024 30.24 853 25.19 14.8 58.6 72 9.9 49.8
06:35 1024 30.24 853 25.19 14.8 58.7 74 10.3 50.5
06:40 1024 30.24 853 25.19 14.8 58.6 73 10.1 50.1
06:45 1024 30.24 853 25.19 14.8 58.6 73 10.1 50.3
06:50 1024 30.24 853 25.19 14.7 58.5 74 10.3 50.5
06:55 1024 30.24 853 25.19 14.8 58.7 74 10.3 50.5
07:00 1024 30.24 853 25.19 14.9 58.9 74 10.4 50.8
07:05 1023 30.21 852 25.16 15 59 74 10.4 50.7
07:10 1023 30.21 852 25.16 15.2 59.3 73 10.3 50.6
07:15 1023 30.21 852 25.16 15.3 59.5 72 10.2 50.4
07:20 1023 30.21 852 25.16 15.3 59.6 70 9.9 49.9
07:25 1023 30.21 852 25.16 15.5 59.9 71 10.4 50.7
07:30 1023 30.21 852 25.16 15.5 59.9 70 10.2 50.3
07:35 1023 30.21 852 25.16 15.8 60.4 69 10.1 50.2
07:40 1023 30.21 852 25.16 16.1 60.9 66 9.8 49.6
07:45 1023 30.21 852 25.16 16.6 61.8 64 9.9 49.8
07:50 1023 30.21 852 25.16 16.6 61.9 64 9.9 49.7
07:55 1023 30.21 852 25.16 16.7 62 63 9.7 49.4
08:00 1023 30.21 852 25.16 16.8 62.2 62 9.6 49.3
08:05 1023 30.21 852 25.16 16.9 62.5 63 9.8 49.6
08:10 1023 30.21 852 25.16 17.4 63.4 60 9.6 49.2
08:15 1023 30.21 852 25.16 18.3 65 57 9.7 49.5
08:20 1023 30.21 852 25.16 18.9 66 54 9.6 49.4
08:25 1023 30.21 852 25.16 19.2 66.5 53 9.5 49
08:30 1023 30.21 852 25.16 19.5 67 53 9.8 49.6
08:35 1023 30.21 852 25.16 19.7 67.5 53 10 50
08:40 1023 30.21 852 25.16 20 68.1 49 9.1 48.5
08:45 1023 30.21 852 25.16 20.1 68.2 50 9.4 48.9
08:50 1023 30.21 852 25.16 20.3 68.5 48 9.1 48.4
08:55 1023 30.21 852 25.16 20.6 69 47 9 48.2
09:00 1023 30.21 852 25.16 20.6 69.1 47 8.9 48.1
09:05 1023 30.21 852 25.16 20.8 69.5 45 8.6 47.4
09:10 1023 30.21 852 25.16 21.1 69.9 45 8.7 47.7
09:15 1023 30.21 852 25.16 21.2 70.1 46 9.2 48.5
09:20 1023 30.21 852 25.16 21.2 70.2 46 9.4 48.9
09:25 1023 30.21 852 25.16 21.4 70.6 45 9.3 48.7
09:30 1023 30.21 852 25.16 21.8 71.2 43 8.7 47.7
09:35 1023 30.21 852 25.16 22 71.5 42 8.6 47.5
09:40 1023 30.21 852 25.16 22.3 72.2 40 8.4 47.1
09:45 1023 30.21 852 25.16 22.9 73.3 39 8.3 46.9
09:50 1023 30.21 852 25.16 22.8 73 38 7.9 46.1
09:55 1023 30.21 852 25.16 22.8 73 38 7.8 46
10:00 1023 30.21 852 25.16 23.3 73.9 38 8.2 46.8
10:05 1023 30.21 852 25.16 22.9 73.3 37 7.6 45.8
10:10 1023 30.21 852 25.16 23.4 74 36 7.5 45.5
10:15 1023 30.21 852 25.16 23.8 74.8 33 6.8 44.3
10:20 1023 30.21 852 25.16 24.3 75.7 33 7.1 44.7
10:25 1023 30.21 852 25.16 24.1 75.4 36 8.3 46.9
10:30 1023 30.21 852 25.16 23.9 75 44 11.2 52.2
10:35 1023 30.21 852 25.16 22.7 72.8 46 10.8 51.4
10:40 1023 30.21 852 25.16 22.1 71.9 46 10.2 50.4
10:45 1023 30.21 852 25.16 21.7 71.1 48 10.2 50.4
10:50 1023 30.21 852 25.16 22 71.6 47 10.3 50.5
10:55 1023 30.21 852 25.16 22 71.7 47 10.4 50.8
11:00 1023 30.21 852 25.16 22.7 72.9 46 10.7 51.2
11:05 1023 30.21 852 25.16 23.3 73.9 46 11.1 51.9
11:10 1023 30.21 852 25.16 23.4 74.1 44 10.7 51.2
11:15 1023 30.21 852 25.16 23.1 73.7 46 11.2 52.1
11:20 1023 30.21 852 25.16 22.8 73 44 10.1 50.1
11:25 1023 30.21 852 25.16 23.2 73.8 44 10.4 50.7
11:30 1023 30.21 852 25.16 23.5 74.3 42 10.1 50.1
11:35 1023 30.21 852 25.16 23.5 74.3 40 9.3 48.8
11:40 1023 30.21 852 25.16 24.1 75.4 40 10 50
11:45 1023 30.21 852 25.16 23.9 75 37 8.5 47.4
11:50 1023 30.21 852 25.16 23.6 74.4 39 9 48.3
11:55 1022 30.18 852 25.16 24.4 75.9 37 8.8 47.9
12:00 1022 30.18 852 25.16 23.9 75 37 8.4 47.1
12:05 1022 30.18 852 25.16 24.7 76.5 33 7.7 45.8
12:10 1022 30.18 851 25.13 24.6 76.2 35 8.4 47.1
12:15 1022 30.18 851 25.13 25.3 77.5 32 7.8 46
12:20 1022 30.18 851 25.13 25.5 77.8 32 7.9 46.2
12:25 1022 30.18 851 25.13 24.9 76.9 31 7.1 44.7
12:30 1022 30.18 851 25.13 25.6 78.1 30 7.2 45
12:35 1022 30.18 851 25.13 26 78.8 29 6.9 44.4
12:40 1022 30.18 851 25.13 26.6 80 28 7.1 44.7
12:45 1022 30.18 851 25.13 27 80.6 30 8 46.5
12:50 1022 30.18 851 25.13 25.2 77.4 32 7.5 45.5
12:55 1021 30.15 851 25.13 25.6 78.1 31 7.5 45.5
13:00 1021 30.15 851 25.13 25.4 77.7 32 7.8 46.1
13:05 1021 30.15 851 25.13 25.1 77.1 32 7.3 45.1
13:10 1021 30.15 850 25.1 25.7 78.2 31 7.6 45.8
13:15 1021 30.15 850 25.1 26.9 80.4 29 7.5 45.4
13:20 1021 30.15 850 25.1 26.7 80.1 30 8 46.4
13:25 1021 30.15 850 25.1 26.7 80.1 31 8.2 46.8
13:30 1021 30.15 850 25.1 27.1 80.8 28 7.4 45.3
13:35 1021 30.15 850 25.1 26.8 80.3 29 7.4 45.3
13:40 1021 30.15 850 25.1 26.7 80 28 6.7 44.1
13:45 1021 30.15 850 25.1 27.1 80.8 28 7.1 44.8
13:50 1021 30.15 850 25.1 27.2 81 26 6.6 43.9
13:55 1021 30.15 850 25.1 28 82.3 26 6.7 44.1
14:00 1021 30.15 850 25.1 27.1 80.7 28 7.3 45.2
14:05 1021 30.15 850 25.1 26.9 80.5 27 6.8 44.2
14:10 1021 30.15 850 25.1 27.1 80.8 28 7.2 45
14:15 1021 30.15 850 25.1 26.8 80.2 27 6.6 43.9
14:20 1021 30.15 850 25.1 27.5 81.4 26 6.4 43.6
14:25 1020 30.12 850 25.1 28 82.4 24 6.1 43
14:30 1020 30.12 850 25.1 27.9 82.3 24 5.7 42.3
14:35 1020 30.12 850 25.1 27.5 81.5 24 5.2 41.3
14:40 1020 30.12 849 25.07 28.1 82.6 22 4.7 40.4
14:45 1020 30.12 849 25.07 29.1 84.4 22 5.8 42.4
14:50 1020 30.12 849 25.07 28.9 84.1 23 6.3 43.3
14:55 1020 30.12 849 25.07 28.7 83.7 25 7.2 44.9
15:00 1020 30.12 849 25.07 28.9 84.1 25 7.4 45.4
15:05 1020 30.12 849 25.07 28.1 82.5 26 7 44.6
15:10 1020 30.12 849 25.07 27.6 81.7 24 5.6 42.2
15:15 1020 30.12 849 25.07 28.9 84.1 21 4.9 40.9
15:20 1020 30.12 849 25.07 28.7 83.7 22 5.3 41.6
15:25 1020 30.12 849 25.07 28.8 83.8 20 4 39.2
15:30 1020 30.12 849 25.07 29.1 84.3 21 4.9 40.8
15:35 1020 30.12 849 25.07 28.9 84.1 20 4.1 39.3
15:40 1020 30.12 849 25.07 29.3 84.7 20 4.1 39.4
15:45 1020 30.12 849 25.07 29.2 84.5 21 4.7 40.5
15:50 1019 30.09 849 25.07 28.5 83.2 21 4.1 39.3
15:55 1019 30.09 849 25.07 28.5 83.4 20 3.7 38.7
16:00 1019 30.09 849 25.07 29.1 84.4 23 6.4 43.5
16:05 1019 30.09 849 25.07 29.3 84.7 20 4.2 39.5
16:10 1019 30.09 849 25.07 28.8 83.9 20 4 39.2
16:15 1019 30.09 848 25.04 29.8 85.7 19 3.9 38.9
16:20 1019 30.09 848 25.04 29.9 85.8 19 4.3 39.8
16:25 1019 30.09 848 25.04 29.7 85.5 20 4.5 40
16:30 1019 30.09 848 25.04 28.8 83.9 22 5.4 41.8
16:35 1019 30.09 848 25.04 28.4 83.1 25 6.6 44
16:40 1019 30.09 848 25.04 27.6 81.7 28 7.9 46.2
16:45 1019 30.09 848 25.04 26.7 80 28 6.8 44.3
16:50 1019 30.09 848 25.04 26.2 79.2 26 5.5 42
16:55 1019 30.09 848 25.04 25.8 78.5 26 5 41
17:00 1019 30.09 848 25.04 25.8 78.5 26 5.3 41.5
17:05 1019 30.09 848 25.04 25.9 78.6 27 6 42.7
17:10 1019 30.09 848 25.04 25.6 78.1 29 6.3 43.3
17:15 1019 30.09 848 25.04 25.5 77.8 29 6.4 43.6
17:20 1019 30.09 848 25.04 25 76.9 30 6.6 43.8
17:25 1019 30.09 848 25.04 24.6 76.3 31 6.6 43.9
17:30 1019 30.09 848 25.04 24.3 75.7 32 6.9 44.4
17:35 1019 30.09 848 25.04 24 75.2 31 6.1 43
17:40 1019 30.09 848 25.04 23.9 74.9 31 6.2 43.1
17:45 1019 30.09 848 25.04 23.9 75.1 31 5.8 42.4
17:50 1019 30.09 848 25.04 24 75.2 30 5.7 42.3
17:55 1019 30.09 848 25.04 24 75.1 31 6 42.8
18:00 1019 30.09 848 25.04 24 75.2 30 5.5 41.9
18:05 1019 30.09 848 25.04 24 75.3 30 5.5 41.9
18:10 1019 30.09 848 25.04 24 75.2 30 5.4 41.8
18:15 1019 30.09 848 25.04 23.9 75 29 5.2 41.4
18:20 1019 30.09 848 25.04 23.9 75 30 5.3 41.6
18:25 1019 30.09 848 25.04 23.9 74.9 29 5.1 41.1
18:30 1019 30.09 848 25.04 23.9 75.1 30 5.3 41.6
18:35 1019 30.09 848 25.04 23.8 74.8 30 5.5 41.9
18:40 1019 30.09 848 25.04 23.6 74.6 30 5.4 41.7
18:45 1019 30.09 848 25.04 23.5 74.4 31 5.5 42
18:50 1019 30.09 848 25.04 23.4 74 32 5.7 42.3
18:55 1019 30.09 848 25.04 23.2 73.7 33 6.2 43.2
19:00 1019 30.09 848 25.04 22.9 73.2 35 6.9 44.4
19:05 1019 30.09 848 25.04 22.7 72.8 37 7.3 45.1
19:10 1019 30.09 848 25.04 22.5 72.6 38 7.9 46.2
19:15 1019 30.09 848 25.04 22.4 72.2 41 8.5 47.4
19:20 1019 30.09 848 25.04 22.1 71.9 42 8.8 47.9
19:25 1019 30.09 848 25.04 21.8 71.2 43 8.9 48.1
19:30 1019 30.09 848 25.04 21.6 70.9 43 8.7 47.6
19:35 1019 30.09 848 25.04 21.6 70.8 43 8.5 47.4
19:40 1019 30.09 848 25.04 21.4 70.5 43 8.4 47
19:45 1019 30.09 848 25.04 21.4 70.5 41 7.8 46.1
19:50 1019 30.09 848 25.04 21.4 70.5 41 7.8 46
19:55 1019 30.09 848 25.04 21.4 70.5 40 7.3 45.1
20:00 1019 30.09 848 25.04 21.4 70.5 40 7.5 45.5
20:05 1019 30.09 848 25.04 21.2 70.1 42 7.8 46
20:10 1019 30.09 848 25.04 21 69.9 42 8 46.3
20:15 1019 30.09 848 25.04 21 69.8 42 7.7 45.9
20:20 1019 30.09 848 25.04 21.1 69.9 41 7.4 45.2
20:25 1019 30.09 848 25.04 21.1 69.9 41 7.5 45.5
20:30 1019 30.09 849 25.07 20.8 69.5 42 7.5 45.5
20:35 1019 30.09 849 25.07 20.7 69.3 42 7.5 45.5
20:40 1020 30.12 849 25.07 20.6 69.1 42 7.5 45.6
20:45 1020 30.12 849 25.07 20.6 69 43 7.6 45.6
20:50 1020 30.12 849 25.07 20.6 69.1 42 7.3 45.2
20:55 1020 30.12 849 25.07 20.7 69.2 42 7.4 45.3
21:00 1020 30.12 849 25.07 20.6 69 42 7.5 45.5
21:05 1020 30.12 849 25.07 20.5 68.9 43 7.6 45.6
21:10 1020 30.12 849 25.07 20.5 68.9 43 7.7 45.9
21:15 1020 30.12 849 25.07 20.5 68.8 43 7.5 45.5
21:20 1020 30.12 849 25.07 20.4 68.6 43 7.5 45.4
21:25 1020 30.12 849 25.07 20.3 68.6 42 7.3 45.1
21:30 1020 30.12 849 25.07 20.3 68.5 43 7.4 45.4
21:35 1020 30.12 849 25.07 20.2 68.3 43 7.3 45.1
21:40 1020 30.12 849 25.07 20.2 68.4 43 7.3 45.1
21:45 1020 30.12 849 25.07 20.2 68.4 42 7.2 44.9
21:50 1019 30.09 849 25.07 20.2 68.4 43 7.3 45.1
21:55 1019 30.09 849 25.07 20.2 68.3 43 7.3 45.2
22:00 1019 30.09 849 25.07 20.1 68.2 43 7.3 45.2
22:05 1019 30.09 849 25.07 20.1 68.2 43 7.3 45.2
22:10 1019 30.09 849 25.07 20.2 68.3 43 7.3 45.2
22:15 1019 30.09 849 25.07 20.2 68.3 43 7.4 45.3
22:20 1019 30.09 849 25.07 20.2 68.3 43 7.4 45.4
22:25 1020 30.12 849 25.07 20.2 68.4 43 7.5 45.5
22:30 1020 30.12 849 25.07 20.2 68.3 43 7.5 45.5
22:35 1020 30.12 849 25.07 20.1 68.1 44 7.4 45.4
22:40 1020 30.12 849 25.07 20 67.9 45 7.7 45.8
22:45 1020 30.12 849 25.07 19.8 67.7 45 7.7 45.9
22:50 1020 30.12 849 25.07 19.7 67.5 45 7.7 45.9
22:55 1020 30.12 849 25.07 19.6 67.2 46 7.7 45.9
23:00 1020 30.12 849 25.07 19.4 67 46 7.8 46
23:05 1020 30.12 849 25.07 19.3 66.8 47 7.8 46.1
23:10 1020 30.12 849 25.07 19.2 66.6 47 7.7 45.9
23:15 1020 30.12 849 25.07 19.3 66.8 45 7.4 45.2
23:20 1020 30.12 849 25.07 19.5 67 45 7.5 45.5
23:25 1020 30.12 849 25.07 19.4 67 45 7.5 45.4
23:30 1020 30.12 849 25.07 19.3 66.8 46 7.6 45.6
23:35 1020 30.12 849 25.07 19.2 66.5 46 7.5 45.5
23:40 1020 30.12 849 25.07 19 66.3 47 7.6 45.6
23:45 1020 30.12 849 25.07 18.9 66 47 7.5 45.5
23:50 1020 30.12 849 25.07 18.8 65.9 47 7.4 45.4
23:55 1020 30.12 849 25.07 18.8 65.8 48 7.5 45.5
24:00 1020 30.12 849 25.07 18.7 65.6 48 7.6 45.6